Time;durP1;ratioP1;P1;durP2;ratioP2;P2;SDS_P1;SDS_P2;PMS_P1;PMS_P2;Temp;Humidity;BMP_temperature;BMP_pressure;BME280_temperature;BME280_humidity;BME280_pressure;Samples;Min_cycle;Max_cycle;Signal;HPM_P1;HPM_P2
2022/08/10 00:01:16;;;;;;;1.80;1.48;;;19.40;56.90;;;18.61;62.22;96712.00;4964233;28;20098;-64
2022/08/10 00:03:42;;;;;;;2.38;1.50;;;19.40;56.90;;;18.55;61.46;96703.03;4948696;28;20093;-64
2022/08/10 00:06:16;;;;;;;3.75;1.70;;;19.30;57.10;;;18.52;62.73;96708.00;4962998;28;20529;-65
2022/08/10 00:08:47;;;;;;;4.60;1.80;;;19.20;57.40;;;18.45;62.11;96712.59;4937695;28;20043;-65
2022/08/10 00:11:37;;;;;;;2.97;1.50;;;19.20;57.80;;;18.42;63.85;96713.03;4964347;28;20035;-65
2022/08/10 00:14:16;;;;;;;2.83;1.77;;;19.10;57.90;;;18.37;62.15;96705.72;4948066;28;20042;-65
2022/08/10 00:16:51;;;;;;;3.13;1.60;;;19.10;57.90;;;18.30;63.17;96705.78;4947300;28;20122;-64
2022/08/10 00:19:36;;;;;;;2.55;1.63;;;19.00;58.00;;;18.27;63.94;96706.22;4916682;28;20146;-65
2022/08/10 00:22:07;;;;;;;2.75;1.70;;;19.00;58.10;;;18.22;62.50;96703.44;4954820;28;20034;-66
2022/08/10 00:24:36;;;;;;;2.67;1.67;;;19.00;58.10;;;18.19;62.99;96701.22;4946101;28;20070;-66
2022/08/10 00:27:19;;;;;;;2.78;1.67;;;18.90;58.20;;;18.18;63.54;96702.25;4945620;28;20050;-65
2022/08/10 00:29:53;;;;;;;4.72;1.77;;;18.90;58.30;;;18.13;64.28;96701.28;4948299;28;20074;-65
2022/08/10 00:32:41;;;;;;;2.50;1.77;;;18.80;58.60;;;18.10;64.27;96710.50;4945403;28;20047;-66
2022/08/10 00:35:38;;;;;;;5.63;1.90;;;18.80;58.40;;;18.08;64.04;96706.44;4921943;28;20046;-66
2022/08/10 00:38:35;;;;;;;;;;;;;;;;;;;;;
2022/08/10 00:41:25;;;;;;;;;;;;;;;;;;;;;
2022/08/10 00:47:23;;;;;;;3.45;1.50;;;18.80;58.40;;;17.96;63.39;96698.41;4935354;28;20515;-64
2022/08/10 00:50:45;;;;;;;3.72;1.88;;;18.70;58.40;;;17.92;63.97;96699.88;4950515;28;20101;-64
2022/08/10 00:53:39;;;;;;;4.05;1.77;;;18.70;58.60;;;17.91;63.88;96706.22;4927521;28;20054;-65
2022/08/10 00:56:08;;;;;;;5.05;1.80;;;18.70;58.30;;;17.88;63.48;96701.31;4922885;28;20035;-65
2022/08/10 00:59:12;;;;;;;3.17;1.70;;;18.70;58.20;;;17.86;64.24;96698.88;4944495;28;20065;-65
2022/08/10 01:01:41;;;;;;;3.22;1.75;;;18.60;58.10;;;17.84;62.64;96694.81;4959394;28;20036;-66
2022/08/10 01:04:08;;;;;;;3.28;1.58;;;18.60;58.30;;;17.81;62.89;96706.72;4956874;28;20105;-65
2022/08/10 01:07:17;;;;;;;2.30;1.60;;;18.60;58.20;;;17.81;63.84;96698.72;4916424;28;20035;-65
2022/08/10 01:10:00;;;;;;;4.72;1.95;;;18.60;58.20;;;17.81;64.33;96700.59;4938578;28;20530;-64
2022/08/10 01:12:50;;;;;;;2.70;1.75;;;18.60;58.40;;;17.80;64.01;96693.63;4963957;28;20050;-67
2022/08/10 01:15:39;;;;;;;2.00;1.50;;;18.60;58.40;;;17.78;64.21;96696.50;4948966;28;20407;-67
2022/08/10 01:18:28;;;;;;;1.55;1.17;;;18.60;58.80;;;17.73;65.23;96689.19;4951571;28;20106;-66
2022/08/10 01:21:55;;;;;;;3.67;1.60;;;18.60;58.90;;;17.71;64.95;96690.44;4967474;28;20117;-66
2022/08/10 01:24:56;;;;;;;3.03;1.73;;;18.50;58.80;;;17.65;64.88;96693.94;4947291;28;20044;-66
2022/08/10 01:27:39;;;;;;;1.80;1.50;;;18.40;58.80;;;17.60;63.98;96694.59;4948430;28;20491;-67
2022/08/10 01:30:09;;;;;;;3.17;1.50;;;18.40;58.60;;;17.57;64.50;96695.03;4942764;28;20043;-67
2022/08/10 01:33:00;;;;;;;3.80;1.80;;;18.30;58.60;;;17.55;64.13;96696.28;4967685;28;20031;-67
2022/08/10 01:35:32;;;;;;;2.80;1.60;;;18.40;58.50;;;17.49;63.50;96697.97;4964633;28;20040;-67
2022/08/10 01:38:03;;;;;;;3.75;1.60;;;18.30;58.60;;;17.47;64.50;96694.72;4935672;28;20495;-67
2022/08/10 01:40:29;;;;;;;;;;;18.20;58.70;;;17.43;64.32;96694.34;4961905;28;20043;-67
2022/08/10 01:42:56;;;;;;;2.88;1.63;;;18.20;58.60;;;17.41;63.99;96690.25;4951827;28;20310;-66
2022/08/10 01:45:22;;;;;;;4.32;1.98;;;18.20;58.80;;;17.42;63.30;96691.88;4950726;28;20110;-66
2022/08/10 01:50:44;;;;;;;2.20;1.52;;;18.20;58.30;;;17.39;63.58;96690.47;4950471;28;20502;-67
2022/08/10 01:53:16;;;;;;;2.75;1.65;;;18.20;58.30;;;17.38;63.42;96693.34;4936117;28;20483;-67
2022/08/10 01:55:41;;;;;;;2.38;1.52;;;18.20;58.20;;;17.35;63.86;96693.78;4951075;28;20039;-66
2022/08/10 01:58:07;;;;;;;2.53;1.80;;;18.10;58.30;;;17.34;62.97;96686.84;4950262;28;20086;-67
2022/08/10 02:00:36;;;;;;;2.47;1.40;;;18.20;58.00;;;17.31;63.90;96687.28;4948945;28;20141;-67
2022/08/10 02:03:01;;;;;;;3.38;1.60;;;18.10;58.10;;;17.31;63.71;96684.63;4919769;29;20455;-66
2022/08/10 02:05:28;;;;;;;3.75;1.52;;;18.10;58.00;;;17.29;63.84;96681.38;4932628;28;20035;-67
2022/08/10 02:07:55;;;;;;;2.67;1.58;;;18.10;58.10;;;17.29;63.27;96681.38;4947818;28;20574;-67
2022/08/10 02:10:21;;;;;;;5.13;1.63;;;18.10;58.20;;;17.28;63.51;96688.53;4942921;28;20039;-67
2022/08/10 02:12:47;;;;;;;2.08;1.33;;;18.10;58.30;;;17.28;63.78;96683.22;4947318;28;20519;-66
2022/08/10 02:15:16;;;;;;;3.63;1.77;;;18.10;58.20;;;17.27;64.28;96683.44;4947132;28;20031;-66
2022/08/10 02:17:47;;;;;;;4.47;1.80;;;18.10;58.20;;;17.27;64.06;96683.44;4918495;29;20110;-64
2022/08/10 02:20:17;;;;;;;6.30;3.03;;;18.20;58.50;;;17.24;64.15;96679.38;4946991;28;20098;-65
2022/08/10 02:22:43;;;;;;;3.17;2.03;;;18.10;58.40;;;17.22;63.48;96677.97;4935312;28;20059;-64
2022/08/10 02:25:10;;;;;;;4.10;1.83;;;18.10;58.50;;;17.21;63.78;96676.31;4961713;28;20111;-64
2022/08/10 02:27:36;;;;;;;3.20;1.60;;;18.10;58.70;;;17.20;64.56;96688.81;4949524;28;20495;-65
2022/08/10 02:30:03;;;;;;;3.58;2.60;;;18.10;58.50;;;17.18;64.23;96684.72;4920680;28;20039;-64
2022/08/10 02:32:29;;;;;;;4.35;2.50;;;18.10;58.80;;;17.17;64.62;96678.59;4947693;28;20066;-65
2022/08/10 02:34:55;;;;;;;3.15;1.90;;;18.10;58.90;;;17.16;64.89;96668.97;4952219;28;20503;-65
2022/08/10 02:37:22;;;;;;;2.67;1.70;;;18.10;59.00;;;17.15;65.03;96670.81;4932940;28;20407;-64
2022/08/10 02:39:48;;;;;;;4.82;2.05;;;18.00;59.00;;;17.12;64.71;96668.59;4928793;28;20047;-65
2022/08/10 02:42:29;;;;;;;2.15;1.80;;;18.00;58.90;;;17.11;65.80;96671.47;4953838;28;20035;-66
2022/08/10 02:45:09;;;;;;;1.90;1.30;;;18.00;59.10;;;17.09;65.51;96682.31;4918853;28;20095;-63
2022/08/10 02:47:44;;;;;;;;;;;18.00;59.10;;;17.04;65.93;96674.19;4963779;28;20086;-64
2022/08/10 02:50:32;;;;;;;3.65;1.50;;;17.90;59.20;;;16.98;65.70;96666.28;4942359;28;19922;-66
2022/08/10 02:53:10;;;;;;;2.67;2.10;;;17.80;59.40;;;16.95;65.72;96672.00;4930789;29;20063;-66
2022/08/10 02:55:49;;;;;;;3.05;1.55;;;17.80;59.60;;;16.91;65.85;96673.44;4945717;28;20534;-66
2022/08/10 02:58:21;;;;;;;4.57;1.83;;;17.70;59.60;;;16.88;65.70;96664.06;4945756;28;20512;-65
2022/08/10 03:00:52;;;;;;;3.33;2.10;;;17.70;59.70;;;16.87;66.23;96659.78;4933778;28;20055;-68
2022/08/10 03:03:21;;;;;;;4.20;1.80;;;17.80;59.80;;;16.84;65.72;96660.22;4930742;29;20117;-70
2022/08/10 03:05:59;;;;;;;3.10;1.92;;;17.60;59.70;;;16.83;66.46;96655.94;4918091;29;20030;-68
2022/08/10 03:08:28;;;;;;;5.13;1.90;;;17.70;59.70;;;16.81;65.52;96658.00;4944826;28;20047;-68
2022/08/10 03:10:54;;;;;;;2.97;1.90;;;17.70;59.60;;;16.80;65.80;96661.69;4930759;29;20036;-67
2022/08/10 03:13:20;;;;;;;3.58;1.70;;;17.70;59.70;;;16.77;65.37;96662.13;4948187;28;20118;-66
2022/08/10 03:15:46;;;;;;;4.88;2.45;;;17.70;59.90;;;16.76;65.68;96665.81;4944542;28;20574;-66
2022/08/10 03:18:12;;;;;;;4.88;2.05;;;17.60;59.90;;;16.74;65.63;96657.19;4933544;29;20100;-66
2022/08/10 03:20:40;;;;;;;3.03;2.00;;;17.60;60.00;;;16.72;66.14;96659.25;4916597;28;20051;-67
2022/08/10 03:23:15;;;;;;;4.25;1.83;;;17.60;60.00;;;16.70;66.33;96659.47;4931015;29;20537;-66
2022/08/10 03:25:43;;;;;;;2.05;1.67;;;17.60;60.00;;;16.66;66.62;96655.63;4928191;28;20032;-66
2022/08/10 03:28:12;;;;;;;3.72;2.20;;;17.60;60.10;;;16.65;65.88;96658.47;4933293;28;20459;-66
2022/08/10 03:30:37;;;;;;;7.07;2.60;;;17.60;60.10;;;16.62;65.74;96653.59;4929813;28;20024;-66
2022/08/10 03:33:04;;;;;;;4.32;2.00;;;17.50;60.10;;;16.60;66.35;96655.63;4933470;29;20862;-66
2022/08/10 03:35:30;;;;;;;4.93;1.90;;;17.50;60.20;;;16.58;66.36;96647.06;4946704;28;20043;-66
2022/08/10 03:37:55;;;;;;;5.25;1.90;;;17.50;60.50;;;16.54;66.03;96655.47;4958777;28;20039;-66
2022/08/10 03:40:21;;;;;;;3.97;1.60;;;17.40;60.50;;;16.51;66.53;96655.06;4946287;28;20055;-66
2022/08/10 03:42:47;;;;;;;3.17;1.83;;;17.40;60.40;;;16.47;66.74;96657.31;4942450;28;20098;-65
2022/08/10 03:45:13;;;;;;;3.63;1.70;;;17.40;60.50;;;16.45;66.27;96651.41;4936064;28;20054;-65
2022/08/10 03:47:38;;;;;;;2.85;1.60;;;17.30;60.50;;;16.43;66.44;96655.31;4916661;29;20036;-66
2022/08/10 03:50:05;;;;;;;3.25;1.85;;;17.30;60.30;;;16.39;66.93;96659.41;4950591;29;20027;-70
2022/08/10 03:52:31;;;;;;;3.45;1.80;;;17.20;60.70;;;16.37;66.85;96656.16;4938899;28;20101;-69
2022/08/10 03:54:56;;;;;;;3.08;1.73;;;17.30;60.80;;;16.35;66.65;96652.91;4951601;28;20507;-70
2022/08/10 03:57:22;;;;;;;3.67;1.70;;;17.20;60.70;;;16.33;66.98;96655.78;4920608;29;20024;-70
2022/08/10 03:59:49;;;;;;;2.83;1.45;;;17.20;60.70;;;16.31;66.84;96657.84;4953624;28;20034;-70
2022/08/10 04:02:14;;;;;;;3.58;1.98;;;17.20;60.70;;;16.31;67.16;96663.13;4938321;28;20034;-70
2022/08/10 04:04:40;;;;;;;4.38;1.75;;;17.20;60.70;;;16.30;66.74;96660.69;4937917;28;20031;-70
2022/08/10 04:07:06;;;;;;;3.85;1.60;;;17.20;60.70;;;16.29;67.21;96669.66;4929263;29;20038;-70
2022/08/10 04:09:34;;;;;;;3.35;1.85;;;17.20;60.80;;;16.27;67.22;96661.09;4922923;29;20125;-70
2022/08/10 04:12:00;;;;;;;5.25;1.85;;;17.20;60.90;;;16.24;67.24;96663.16;4937842;28;20031;-70
2022/08/10 04:14:25;;;;;;;3.15;2.13;;;17.20;60.80;;;16.22;67.85;96661.72;4938190;28;20035;-70
2022/08/10 04:16:51;;;;;;;4.53;1.70;;;17.20;60.80;;;16.20;67.13;96667.25;4969650;28;20548;-70
2022/08/10 04:19:18;;;;;;;3.47;1.60;;;17.20;60.90;;;16.21;68.32;96665.41;4985896;28;20050;-69
2022/08/10 04:21:48;;;;;;;4.75;1.77;;;17.20;60.90;;;16.22;67.43;96670.50;4937560;28;20349;-71
2022/08/10 04:24:19;;;;;;;2.58;1.48;;;17.20;60.80;;;16.22;68.06;96675.00;4936453;29;20040;-70
2022/08/10 04:26:45;;;;;;;3.70;2.20;;;17.20;60.60;;;16.21;67.43;96674.19;4950338;28;20035;-70
2022/08/10 04:29:10;;;;;;;5.05;2.47;;;17.30;60.60;;;16.22;67.94;96675.00;4918709;29;20062;-70
2022/08/10 04:31:36;;;;;;;6.35;2.03;;;17.20;60.60;;;16.23;67.81;96676.63;4934861;29;20031;-70
2022/08/10 04:34:02;;;;;;;5.88;1.92;;;17.30;60.60;;;16.25;67.31;96674.56;4934653;29;20428;-70
2022/08/10 04:36:28;;;;;;;3.75;2.00;;;17.20;60.40;;;16.26;67.89;96673.56;4918528;28;20523;-70
2022/08/10 04:38:53;;;;;;;3.60;1.90;;;17.30;60.70;;;16.28;68.01;96681.31;4946952;29;20452;-69
2022/08/10 04:41:19;;;;;;;2.80;1.63;;;17.30;60.70;;;16.28;67.66;96679.47;4918978;28;20027;-70
2022/08/10 04:43:45;;;;;;;3.80;1.77;;;17.30;60.50;;;16.30;68.05;96672.13;4918996;29;20040;-70
2022/08/10 04:46:11;;;;;;;4.03;1.80;;;17.40;60.80;;;16.29;67.50;96672.31;4918777;28;20031;-70
2022/08/10 04:48:37;;;;;;;5.95;1.77;;;17.30;60.60;;;16.31;67.36;96676.41;4933853;28;20039;-69
2022/08/10 04:51:03;;;;;;;3.55;1.70;;;17.40;60.60;;;16.34;67.45;96683.97;4938653;28;20042;-70
2022/08/10 04:53:29;;;;;;;6.32;1.70;;;17.40;60.60;;;16.34;67.98;96683.97;4980178;28;20046;-70
2022/08/10 04:55:54;;;;;;;5.70;1.80;;;17.30;60.60;;;16.35;68.12;96680.28;4944557;28;20121;-70
2022/08/10 04:58:20;;;;;;;3.42;1.73;;;17.40;60.60;;;16.35;67.59;96677.63;4969197;28;20057;-71
2022/08/10 05:00:46;;;;;;;3.63;1.70;;;17.40;60.40;;;16.39;67.86;96685.97;4956357;28;20090;-70
2022/08/10 05:03:11;;;;;;;2.83;1.83;;;17.50;60.60;;;16.41;68.14;96681.25;4934387;28;20061;-70
2022/08/10 05:05:37;;;;;;;9.50;2.40;;;17.50;60.80;;;16.43;67.77;96684.50;4934415;28;20042;-70
2022/08/10 05:08:03;;;;;;;8.70;2.92;;;17.60;60.60;;;16.48;67.48;96688.16;4922493;28;20038;-70
2022/08/10 05:10:29;;;;;;;5.45;2.40;;;17.60;60.40;;;16.52;67.66;96689.41;4966834;28;20031;-69
2022/08/10 05:12:55;;;;;;;7.82;2.22;;;17.60;60.60;;;16.54;67.73;96695.31;4934307;29;20027;-71
2022/08/10 05:15:23;;;;;;;7.40;2.65;;;17.70;60.50;;;16.58;67.73;96694.88;4918517;29;20510;-71
2022/08/10 05:17:49;;;;;;;5.70;2.25;;;17.70;60.60;;;16.61;67.99;96689.13;4918809;29;20027;-69
2022/08/10 05:20:14;;;;;;;4.00;2.05;;;17.70;60.50;;;16.65;68.45;96703.63;4934204;29;20035;-69
2022/08/10 05:22:44;;;;;;;3.28;1.80;;;17.80;60.30;;;16.69;68.25;96702.19;4938610;28;20038;-69
2022/08/10 05:25:15;;;;;;;6.95;2.75;;;17.80;59.90;;;16.74;67.33;96700.53;4950240;28;20407;-69
2022/08/10 05:27:41;;;;;;;9.85;2.80;;;17.90;60.00;;;16.78;67.59;96698.28;4934243;29;20027;-68
2022/08/10 05:30:12;;;;;;;8.55;3.50;;;18.00;59.80;;;16.82;68.00;96702.94;4950191;28;20035;-72
2022/08/10 05:32:37;;;;;;;7.20;3.45;;;18.10;59.60;;;16.91;68.10;96700.03;4949748;28;20134;-72
2022/08/10 05:35:04;;;;;;;8.95;2.80;;;18.20;59.80;;;16.99;67.88;96703.25;4949786;28;20054;-71
2022/08/10 05:37:30;;;;;;;10.77;2.55;;;18.30;59.30;;;17.07;66.90;96710.97;4954226;28;20047;-72
2022/08/10 05:39:56;;;;;;;10.00;2.83;;;18.40;58.90;;;17.15;66.89;96710.69;4944980;28;20050;-72
2022/08/10 05:42:22;;;;;;;11.13;2.60;;;18.50;58.70;;;17.23;67.65;96708.84;4934100;29;20099;-71
2022/08/10 05:44:48;;;;;;;10.93;2.70;;;18.60;59.30;;;17.33;66.99;96701.16;4918954;28;20032;-69
2022/08/10 05:47:14;;;;;;;5.40;2.25;;;18.70;58.70;;;17.42;67.36;96703.34;4953091;28;20027;-69
2022/08/10 05:49:40;;;;;;;2.65;1.80;;;18.80;58.10;;;17.51;66.33;96711.88;4925403;28;20031;-69
2022/08/10 05:52:05;;;;;;;4.32;1.70;;;19.00;57.50;;;17.60;66.41;96704.44;4941201;28;20070;-69
2022/08/10 05:54:31;;;;;;;6.32;1.80;;;19.00;57.30;;;17.72;66.84;96710.69;4920882;28;20075;-69
2022/08/10 05:56:57;;;;;;;2.78;1.70;;;19.20;57.40;;;17.80;65.96;96704.28;4937258;29;20118;-70
2022/08/10 05:59:28;;;;;;;4.60;2.00;;;19.30;56.60;;;17.90;65.35;96707.25;4952219;28;20054;-72
2022/08/10 06:01:54;;;;;;;7.18;2.03;;;19.40;56.00;;;17.99;64.80;96708.59;4937868;29;20051;-71
2022/08/10 06:04:29;;;;;;;5.35;1.67;;;19.60;55.70;;;18.11;64.35;96701.53;4921236;29;20499;-70
2022/08/10 06:06:56;;;;;;;3.65;1.73;;;19.70;55.10;;;18.23;64.62;96704.25;4937088;28;20035;-71
2022/08/10 06:09:22;;;;;;;4.72;1.70;;;19.90;54.80;;;18.35;64.57;96705.94;4921199;29;20036;-71
2022/08/10 06:11:48;;;;;;;3.13;1.90;;;20.10;54.40;;;18.47;64.22;96698.00;4920986;28;20035;-73
2022/08/10 06:15:14;;;;;;;4.13;1.77;;;20.10;54.30;;;18.60;64.92;96699.72;4955565;28;20086;-71
2022/08/10 06:17:08;;;;;;;3.85;1.75;;;20.40;54.40;;;18.81;64.06;96696.59;4928365;28;20454;-71
2022/08/10 06:19:34;;;;;;;6.20;2.03;;;20.60;53.70;;;18.98;63.75;96697.56;4921020;29;20035;-71
2022/08/10 06:22:01;;;;;;;2.47;1.58;;;20.90;53.10;;;19.18;62.65;96701.78;4924852;28;20095;-70
2022/08/10 06:24:30;;;;;;;3.30;1.60;;;21.00;53.00;;;19.36;62.79;96699.03;4902039;29;20036;-70
2022/08/10 06:26:56;;;;;;;3.63;1.67;;;21.10;53.00;;;19.50;62.18;96695.13;4921033;28;20086;-71
2022/08/10 06:29:21;;;;;;;4.22;1.77;;;21.20;52.10;;;19.64;61.83;96694.91;4966390;28;20106;-71
2022/08/10 06:31:49;;;;;;;3.92;1.80;;;21.30;51.90;;;19.74;60.75;96697.84;4921085;29;20066;-71
2022/08/10 06:34:23;;;;;;;10.77;1.73;;;21.30;51.80;;;19.82;59.47;96686.81;4920885;29;20126;-71
2022/08/10 06:36:49;;;;;;;4.78;1.77;;;21.40;51.20;;;19.93;59.62;96691.34;4921960;28;20039;-71
2022/08/10 06:39:14;;;;;;;4.03;1.50;;;21.50;51.60;;;20.00;60.27;96700.03;4936287;28;20115;-72
2022/08/10 06:41:44;;;;;;;4.82;1.55;;;21.60;51.30;;;20.08;59.13;96699.66;4925243;29;20051;-71
2022/08/10 06:44:15;;;;;;;2.72;1.70;;;21.70;50.70;;;20.17;59.06;96692.94;4920882;29;20031;-71
2022/08/10 06:46:46;;;;;;;4.32;1.60;;;21.80;50.70;;;20.28;58.22;96693.13;4932679;28;20118;-71
2022/08/10 06:49:11;;;;;;;2.50;1.67;;;21.90;50.00;;;20.34;59.43;96692.19;4944240;28;20152;-72
2022/08/10 06:51:38;;;;;;;4.20;1.73;;;22.00;50.40;;;20.43;58.32;96698.84;4936319;28;20039;-70
2022/08/10 06:54:06;;;;;;;2.95;1.50;;;22.00;49.60;;;20.51;58.59;96689.63;4952646;28;20039;-71
2022/08/10 06:56:43;;;;;;;4.78;1.60;;;22.10;49.90;;;20.60;58.08;96683.69;4945144;28;20035;-71
2022/08/10 06:59:17;;;;;;;2.97;1.33;;;22.30;49.80;;;20.70;58.88;96694.56;4922676;29;20031;-70
2022/08/10 07:01:44;;;;;;;5.00;1.55;;;22.50;50.40;;;20.82;58.13;96685.66;4953723;28;20570;-69
2022/08/10 07:04:12;;;;;;;3.95;1.63;;;22.60;49.60;;;20.91;57.43;96681.56;4952234;28;20039;-70
2022/08/10 07:06:43;;;;;;;4.38;1.60;;;22.60;49.20;;;21.00;57.26;96690.81;4936009;28;20031;-70
2022/08/10 07:09:10;;;;;;;6.90;1.90;;;22.70;49.00;;;21.12;57.15;96686.25;4951980;28;20499;-70
2022/08/10 07:11:35;;;;;;;3.08;1.48;;;22.90;48.70;;;21.21;56.83;96681.28;4943269;28;20043;-70
2022/08/10 07:14:01;;;;;;;5.90;1.30;;;23.00;48.00;;;21.31;56.22;96678.84;4924744;29;20035;-70
2022/08/10 07:16:27;;;;;;;2.53;1.48;;;23.10;48.20;;;21.41;56.21;96676.31;4920141;29;20628;-70
2022/08/10 07:18:56;;;;;;;2.20;1.50;;;23.20;47.50;;;21.55;55.29;96674.13;4919696;28;20399;-70
2022/08/10 07:21:25;;;;;;;4.82;1.80;;;23.50;46.90;;;21.69;55.23;96670.84;4919645;28;20062;-70
2022/08/10 07:23:51;;;;;;;4.70;1.60;;;23.60;46.60;;;21.86;54.93;96664.66;4920947;28;20436;-69
2022/08/10 07:26:17;;;;;;;3.53;1.70;;;23.80;46.20;;;22.01;54.54;96671.06;4919865;29;20031;-70
2022/08/10 07:28:44;;;;;;;4.50;1.73;;;24.00;46.00;;;22.17;54.37;96671.28;4919018;28;20063;-70
2022/08/10 07:31:09;;;;;;;4.47;1.50;;;24.10;45.50;;;22.33;53.89;96670.41;4904440;29;20110;-70
2022/08/10 07:33:35;;;;;;;2.88;1.55;;;24.40;44.30;;;22.50;52.71;96665.00;4920049;29;20764;-70
2022/08/10 07:36:01;;;;;;;5.38;1.45;;;24.60;43.80;;;22.69;52.29;96668.97;4943677;28;20063;-70
2022/08/10 07:38:29;;;;;;;4.68;1.52;;;24.90;43.70;;;22.82;51.72;96662.41;4919071;29;20031;-70
2022/08/10 07:40:54;;;;;;;2.40;1.40;;;25.00;42.90;;;22.99;51.51;96665.81;4919894;28;20035;-70
2022/08/10 07:43:23;;;;;;;2.03;1.30;;;25.10;42.70;;;23.14;50.71;96657.13;4919949;29;20421;-71
2022/08/10 07:45:49;;;;;;;3.22;1.20;;;25.20;41.90;;;23.30;50.84;96664.22;4936083;29;20028;-70
2022/08/10 07:48:18;;;;;;;5.75;1.45;;;25.60;42.40;;;23.46;50.23;96657.09;4935208;28;20050;-71
2022/08/10 07:50:45;;;;;;;5.68;2.15;;;25.80;41.80;;;23.67;50.30;96666.97;4916114;28;20518;-71
2022/08/10 07:53:16;;;;;;;3.10;1.52;;;26.00;40.50;;;23.83;48.57;96663.31;4919889;28;20031;-71
2022/08/10 07:55:42;;;;;;;4.30;1.63;;;26.20;40.70;;;24.05;49.07;96671.25;4966981;28;20024;-70
2022/08/10 07:58:08;;;;;;;3.20;1.45;;;26.50;39.60;;;24.21;48.12;96674.78;4967197;28;20102;-71
2022/08/10 08:00:34;;;;;;;3.75;1.40;;;26.50;39.20;;;24.32;48.04;96663.06;4966796;28;20031;-70
2022/08/10 08:03:01;;;;;;;3.47;1.60;;;26.60;39.10;;;24.49;47.26;96667.44;4967429;28;20109;-70
2022/08/10 08:05:27;;;;;;;6.30;1.20;;;26.90;38.70;;;24.65;47.03;96659.13;4957224;28;20030;-71
2022/08/10 08:07:54;;;;;;;3.38;1.25;;;27.10;39.10;;;24.79;46.95;96651.38;4952209;28;20513;-71
2022/08/10 08:10:23;;;;;;;2.10;1.30;;;27.20;38.40;;;24.96;46.88;96660.03;4931733;28;20035;-70
2022/08/10 08:12:49;;;;;;;4.55;1.52;;;27.50;38.40;;;25.16;45.49;96656.59;4939037;28;20403;-68
2022/08/10 08:15:17;;;;;;;4.85;1.30;;;27.70;37.10;;;25.34;44.90;96656.03;4947281;28;20036;-70
2022/08/10 08:17:43;;;;;;;3.65;1.40;;;27.90;36.30;;;25.44;44.36;96660.63;4950789;28;20031;-70
2022/08/10 08:20:09;;;;;;;5.68;1.55;;;27.90;36.40;;;25.56;43.74;96654.97;4950932;28;20066;-70
2022/08/10 08:22:35;;;;;;;6.65;1.40;;;28.10;35.50;;;25.76;44.04;96656.88;4934468;28;20027;-70
2022/08/10 08:25:01;;;;;;;2.40;1.20;;;28.60;36.50;;;25.97;43.07;96669.22;4935086;29;20035;-71
2022/08/10 08:27:27;;;;;;;2.80;1.27;;;28.70;34.80;;;26.15;43.51;96660.56;4934789;28;20074;-70
2022/08/10 08:29:53;;;;;;;3.13;1.17;;;29.10;35.30;;;26.38;42.94;96658.34;4927255;28;20036;-70
2022/08/10 08:32:22;;;;;;;4.88;1.10;;;29.50;34.60;;;26.59;42.36;96654.47;4915740;29;20566;-72
2022/08/10 08:34:52;;;;;;;3.83;1.30;;;29.60;34.40;;;26.79;41.32;96654.38;4915670;29;20032;-70
2022/08/10 08:37:18;;;;;;;2.60;1.10;;;29.80;32.80;;;27.00;40.95;96659.69;4916176;29;20024;-71
2022/08/10 08:39:44;;;;;;;4.72;1.52;;;30.10;32.40;;;27.22;40.75;96664.69;4938267;29;20046;-70
2022/08/10 08:42:46;;;;;;;3.53;0.98;;;30.50;31.80;;;27.43;37.26;96656.13;4950563;28;20031;-70
2022/08/10 08:45:44;;;;;;;7.93;1.30;;;30.60;31.00;;;27.61;37.46;96659.22;4950433;28;20032;-70
2022/08/10 08:48:19;;;;;;;3.13;0.98;;;30.80;31.00;;;27.82;38.61;96652.56;4938852;29;20090;-71
2022/08/10 08:51:09;;;;;;;3.95;1.17;;;31.10;31.30;;;27.98;37.18;96651.31;4965968;28;20055;-71
2022/08/10 08:54:17;;;;;;;7.30;1.23;;;31.10;30.30;;;28.16;36.79;96643.56;4952324;28;20032;-70
2022/08/10 08:56:57;;;;;;;4.90;1.10;;;31.40;30.80;;;28.33;36.68;96646.66;4938076;28;20032;-70
2022/08/10 08:59:53;;;;;;;4.43;1.20;;;31.50;30.20;;;28.51;36.24;96645.84;4919021;29;20110;-71
2022/08/10 09:03:03;;;;;;;2.20;1.10;;;31.80;29.90;;;28.71;35.73;96646.69;4951675;28;20411;-70
2022/08/10 09:06:20;;;;;;;2.38;1.33;;;32.00;29.40;;;28.93;36.09;96641.53;4935519;29;20075;-71
2022/08/10 09:09:05;;;;;;;6.47;1.20;;;32.20;29.60;;;29.10;35.43;96647.25;4953203;28;20074;-70
2022/08/10 09:12:06;;;;;;;2.50;1.30;;;32.40;28.70;;;29.20;34.24;96647.09;4955518;28;20356;-71
2022/08/10 09:14:54;;;;;;;3.40;1.20;;;32.20;28.20;;;29.18;34.13;96649.28;4951818;28;20709;-70
2022/08/10 09:17:46;;;;;;;2.45;1.05;;;31.80;28.70;;;29.22;34.40;96639.47;4950414;28;20047;-71
2022/08/10 09:20:38;;;;;;;2.15;1.05;;;32.10;29.00;;;29.41;33.94;96642.13;4953129;28;20106;-70
2022/08/10 09:23:31;;;;;;;3.00;1.40;;;32.40;28.90;;;29.60;34.56;96635.91;4939787;28;20028;-70
2022/08/10 09:26:03;;;;;;;5.88;1.25;;;32.60;28.90;;;29.73;34.36;96644.09;4946497;28;20043;-72
2022/08/10 09:28:33;;;;;;;4.90;1.27;;;32.70;28.30;;;29.91;34.22;96636.19;4937052;28;20038;-71
2022/08/10 09:31:07;;;;;;;3.53;2.03;;;33.00;28.10;;;30.16;33.65;96641.16;4942179;29;20507;-71
2022/08/10 09:33:52;;;;;;;3.42;1.10;;;33.20;28.10;;;30.27;32.72;96639.84;4919254;28;20131;-70
2022/08/10 09:36:49;;;;;;;2.95;1.30;;;33.10;27.40;;;30.50;32.82;96629.88;4934581;28;20122;-70
2022/08/10 09:39:45;;;;;;;7.28;3.92;;;33.60;27.10;;;30.72;32.36;96634.59;4934040;28;20031;-70
2022/08/10 09:42:13;;;;;;;4.07;1.95;;;33.90;26.70;;;30.95;32.81;96635.44;4934578;28;20048;-71
2022/08/10 09:44:42;;;;;;;6.97;3.67;;;34.30;26.80;;;31.23;32.38;96636.16;4942176;28;20062;-70
2022/08/10 09:47:52;;;;;;;4.85;2.67;;;34.60;26.20;;;31.58;31.01;96627.16;4957835;28;20037;-70
2022/08/10 09:50:33;;;;;;;6.28;3.55;;;35.20;25.80;;;31.81;31.19;96636.09;4937686;28;20122;-71
2022/08/10 09:53:37;;;;;;;7.45;4.13;;;35.10;25.50;;;32.00;30.10;96638.59;4933968;28;20032;-70
2022/08/10 09:56:39;;;;;;;6.25;2.40;;;35.50;24.50;;;32.29;29.52;96646.28;4931681;28;20032;-70
2022/08/10 09:59:47;;;;;;;2.95;1.15;;;36.00;23.90;;;32.53;29.50;96634.97;4933943;28;20086;-71
2022/08/10 10:02:51;;;;;;;5.40;1.77;;;36.50;23.80;;;32.76;29.26;96636.44;4933891;29;20091;-71
2022/08/10 10:06:00;;;;;;;4.93;1.30;;;37.10;23.30;;;33.06;29.17;96625.78;4952837;29;20050;-71
2022/08/10 10:09:06;;;;;;;5.00;1.23;;;37.60;23.20;;;33.41;29.16;96627.38;4939926;29;20051;-70
2022/08/10 10:12:11;;;;;;;3.25;1.30;;;38.00;22.10;;;33.78;28.27;96635.97;4961220;28;20040;-71
2022/08/10 10:15:21;;;;;;;2.47;0.82;;;38.40;22.00;;;33.97;27.29;96636.44;4906247;28;20031;-69
2022/08/10 10:18:02;;;;;;;2.53;1.10;;;38.70;21.30;;;34.14;27.51;96634.75;4933620;28;20111;-71
2022/08/10 10:20:58;;;;;;;3.05;1.15;;;38.90;20.80;;;34.37;27.26;96630.66;4934951;28;20035;-71
2022/08/10 10:23:45;;;;;;;2.70;0.80;;;39.20;20.40;;;34.74;26.57;96620.81;4939693;28;20131;-70
2022/08/10 10:26:51;;;;;;;3.33;0.88;;;39.80;19.50;;;35.08;26.43;96611.59;4963773;28;20028;-71
2022/08/10 10:29:27;;;;;;;2.47;1.13;;;40.40;19.40;;;35.52;26.79;96615.53;4953331;28;20035;-71
2022/08/10 10:32:07;;;;;;;5.40;1.17;;;41.20;19.60;;;35.85;25.93;96618.28;4952417;28;20038;-71
2022/08/10 10:34:58;;;;;;;4.22;0.95;;;41.60;18.60;;;36.22;25.53;96615.59;4922676;28;20153;-71
2022/08/10 10:37:24;;;;;;;2.97;1.38;;;41.70;18.70;;;36.55;26.53;96606.44;4922841;28;20043;-71
2022/08/10 10:39:53;;;;;;;3.13;1.90;;;42.30;18.00;;;36.71;25.05;96610.09;4936885;28;20082;-71
2022/08/10 10:42:54;;;;;;;3.17;1.38;;;42.30;17.80;;;36.94;23.94;96605.72;4920674;29;20035;-71
2022/08/10 10:46:28;;;;;;;5.38;1.27;;;42.50;17.70;;;37.16;24.04;96609.88;4938330;29;20042;-71
2022/08/10 10:49:21;;;;;;;2.47;1.17;;;43.10;17.20;;;37.49;23.49;96611.59;4928839;28;20121;-71
2022/08/10 10:51:56;;;;;;;2.30;1.20;;;43.00;16.70;;;37.42;23.17;96608.66;4947647;28;20467;-71
2022/08/10 10:55:13;;;;;;;1.83;0.85;;;42.00;17.00;;;37.25;22.51;96601.50;4967649;28;20089;-71
2022/08/10 10:58:14;;;;;;;3.67;1.17;;;41.60;17.40;;;36.88;22.67;96609.03;4947524;28;20039;-70
2022/08/10 11:01:02;;;;;;;1.20;0.90;;;40.30;17.60;;;36.50;22.41;96602.81;4971754;28;20039;-71